sensor_id;sensor_type;location;lat;lon;timestamp;pressure;altitude;pressure_sealevel;temperature;humidity
38912;BME280;28444;48.056;14.408;2023-04-05T00:00:21;98132.72;;;0.80;63.17
38912;BME280;28444;48.056;14.408;2023-04-05T00:02:48;98137.41;;;0.85;63.14
38912;BME280;28444;48.056;14.408;2023-04-05T00:05:15;98126.88;;;0.87;63.48
38912;BME280;28444;48.056;14.408;2023-04-05T00:08:02;98125.16;;;0.90;62.93
38912;BME280;28444;48.056;14.408;2023-04-05T00:10:30;98124.09;;;0.70;63.47
38912;BME280;28444;48.056;14.408;2023-04-05T00:12:57;98119.44;;;0.65;64.32
38912;BME280;28444;48.056;14.408;2023-04-05T00:15:26;98117.25;;;0.69;65.27
38912;BME280;28444;48.056;14.408;2023-04-05T00:17:52;98114.84;;;0.40;65.62
38912;BME280;28444;48.056;14.408;2023-04-05T00:20:20;98117.09;;;0.47;65.73
38912;BME280;28444;48.056;14.408;2023-04-05T00:22:46;98115.16;;;0.47;65.80
38912;BME280;28444;48.056;14.408;2023-04-05T00:25:16;98123.69;;;0.46;66.46
38912;BME280;28444;48.056;14.408;2023-04-05T00:27:43;98105.16;;;0.54;66.58
38912;BME280;28444;48.056;14.408;2023-04-05T00:30:11;98117.88;;;0.53;66.84
38912;BME280;28444;48.056;14.408;2023-04-05T00:32:38;98123.19;;;0.42;67.14
38912;BME280;28444;48.056;14.408;2023-04-05T00:35:05;98112.66;;;0.38;67.90
38912;BME280;28444;48.056;14.408;2023-04-05T00:37:31;98114.84;;;0.40;67.18
38912;BME280;28444;48.056;14.408;2023-04-05T00:39:58;98113.44;;;0.50;67.74
38912;BME280;28444;48.056;14.408;2023-04-05T00:42:25;98112.19;;;0.45;67.96
38912;BME280;28444;48.056;14.408;2023-04-05T00:44:52;98115.41;;;0.50;67.33
38912;BME280;28444;48.056;14.408;2023-04-05T00:47:19;98110.56;;;0.59;67.32
38912;BME280;28444;48.056;14.408;2023-04-05T00:49:45;98109.34;;;0.60;68.16
38912;BME280;28444;48.056;14.408;2023-04-05T00:52:12;98113.72;;;0.52;68.88
38912;BME280;28444;48.056;14.408;2023-04-05T00:54:40;98108.56;;;0.48;68.51
38912;BME280;28444;48.056;14.408;2023-04-05T00:57:08;98110.69;;;0.39;68.09
38912;BME280;28444;48.056;14.408;2023-04-05T00:59:36;98108.50;;;0.37;68.50
38912;BME280;28444;48.056;14.408;2023-04-05T01:02:23;98113.31;;;0.28;68.73
38912;BME280;28444;48.056;14.408;2023-04-05T01:07:58;98113.00;;;0.20;69.11
38912;BME280;28444;48.056;14.408;2023-04-05T01:10:36;98110.69;;;0.07;70.03
38912;BME280;28444;48.056;14.408;2023-04-05T01:13:05;98111.38;;;-0.04;69.69
38912;BME280;28444;48.056;14.408;2023-04-05T01:15:32;98116.69;;;-0.09;70.24
38912;BME280;28444;48.056;14.408;2023-04-05T01:17:58;98107.31;;;-0.19;70.87
38912;BME280;28444;48.056;14.408;2023-04-05T01:20:30;98102.16;;;-0.23;70.92
38912;BME280;28444;48.056;14.408;2023-04-05T01:25:21;98104.00;;;-0.35;71.44
38912;BME280;28444;48.056;14.408;2023-04-05T01:26:51;98103.28;;;-0.35;72.24
38912;BME280;28444;48.056;14.408;2023-04-05T01:30:02;98102.34;;;-0.27;71.96
38912;BME280;28444;48.056;14.408;2023-04-05T01:35:39;98103.00;;;-0.37;71.78
38912;BME280;28444;48.056;14.408;2023-04-05T01:38:12;98101.72;;;-0.42;71.70
38912;BME280;28444;48.056;14.408;2023-04-05T01:40:42;98103.19;;;-0.41;71.21
38912;BME280;28444;48.056;14.408;2023-04-05T01:43:13;98097.19;;;-0.30;71.93
38912;BME280;28444;48.056;14.408;2023-04-05T01:45:41;98101.34;;;-0.29;71.58
38912;BME280;28444;48.056;14.408;2023-04-05T01:48:08;98098.66;;;-0.29;71.45
38912;BME280;28444;48.056;14.408;2023-04-05T01:50:35;98102.84;;;-0.28;71.93
38912;BME280;28444;48.056;14.408;2023-04-05T01:53:02;98101.59;;;-0.33;70.81
38912;BME280;28444;48.056;14.408;2023-04-05T01:55:29;98099.72;;;-0.21;71.01
38912;BME280;28444;48.056;14.408;2023-04-05T01:57:56;98104.84;;;-0.23;71.25
38912;BME280;28444;48.056;14.408;2023-04-05T02:00:23;98092.13;;;-0.22;71.15
38912;BME280;28444;48.056;14.408;2023-04-05T02:02:49;98094.03;;;-0.29;71.13
38912;BME280;28444;48.056;14.408;2023-04-05T02:05:16;98088.16;;;-0.33;71.07
38912;BME280;28444;48.056;14.408;2023-04-05T02:07:43;98096.47;;;-0.31;70.87
38912;BME280;28444;48.056;14.408;2023-04-05T02:10:10;98101.81;;;-0.36;71.02
38912;BME280;28444;48.056;14.408;2023-04-05T02:12:36;98093.53;;;-0.33;70.43
38912;BME280;28444;48.056;14.408;2023-04-05T02:15:04;98096.63;;;-0.40;70.38
38912;BME280;28444;48.056;14.408;2023-04-05T02:17:30;98093.88;;;-0.45;71.17
38912;BME280;28444;48.056;14.408;2023-04-05T02:19:59;98090.19;;;-0.48;71.31
38912;BME280;28444;48.056;14.408;2023-04-05T02:22:31;98085.28;;;-0.76;71.61
38912;BME280;28444;48.056;14.408;2023-04-05T02:24:58;98088.78;;;-0.90;71.99
38912;BME280;28444;48.056;14.408;2023-04-05T02:27:24;98087.16;;;-0.82;71.92
38912;BME280;28444;48.056;14.408;2023-04-05T02:29:51;98088.78;;;-0.90;72.08
38912;BME280;28444;48.056;14.408;2023-04-05T02:32:18;98088.09;;;-0.85;72.05
38912;BME280;28444;48.056;14.408;2023-04-05T02:34:45;98085.00;;;-0.78;71.63
38912;BME280;28444;48.056;14.408;2023-04-05T02:37:12;98088.06;;;-0.90;72.26
38912;BME280;28444;48.056;14.408;2023-04-05T02:39:38;98082.19;;;-0.89;72.17
38912;BME280;28444;48.056;14.408;2023-04-05T02:42:05;98087.09;;;-0.87;72.17
38912;BME280;28444;48.056;14.408;2023-04-05T02:44:32;98089.25;;;-0.91;71.94
38912;BME280;28444;48.056;14.408;2023-04-05T02:46:58;98078.50;;;-0.91;71.26
38912;BME280;28444;48.056;14.408;2023-04-05T02:49:25;98080.72;;;-0.90;71.49
38912;BME280;28444;48.056;14.408;2023-04-05T02:51:52;98084.34;;;-0.93;72.03
38912;BME280;28444;48.056;14.408;2023-04-05T02:54:18;98085.16;;;-0.87;71.83
38912;BME280;28444;48.056;14.408;2023-04-05T02:56:45;98090.25;;;-0.89;71.21
38912;BME280;28444;48.056;14.408;2023-04-05T02:59:12;98082.59;;;-0.96;71.05
38912;BME280;28444;48.056;14.408;2023-04-05T03:01:41;98086.75;;;-0.95;71.86
38912;BME280;28444;48.056;14.408;2023-04-05T03:04:10;98074.22;;;-1.04;71.68
38912;BME280;28444;48.056;14.408;2023-04-05T03:06:37;98083.38;;;-1.16;72.11
38912;BME280;28444;48.056;14.408;2023-04-05T03:09:04;98083.56;;;-1.19;72.08
38912;BME280;28444;48.056;14.408;2023-04-05T03:11:31;98085.47;;;-1.20;72.27
38912;BME280;28444;48.056;14.408;2023-04-05T03:13:59;98079.88;;;-1.22;72.08
38912;BME280;28444;48.056;14.408;2023-04-05T03:16:26;98074.28;;;-1.18;72.50
38912;BME280;28444;48.056;14.408;2023-04-05T03:18:53;98082.34;;;-1.18;72.26
38912;BME280;28444;48.056;14.408;2023-04-05T03:21:21;98076.38;;;-1.28;72.35
38912;BME280;28444;48.056;14.408;2023-04-05T03:23:48;98073.75;;;-1.23;71.92
38912;BME280;28444;48.056;14.408;2023-04-05T03:26:15;98073.38;;;-1.15;71.55
38912;BME280;28444;48.056;14.408;2023-04-05T03:28:42;98070.16;;;-1.19;71.70
38912;BME280;28444;48.056;14.408;2023-04-05T03:31:10;98068.97;;;-1.13;71.85
38912;BME280;28444;48.056;14.408;2023-04-05T03:33:37;98069.88;;;-1.01;71.95
38912;BME280;28444;48.056;14.408;2023-04-05T03:36:04;98062.59;;;-0.95;71.47
38912;BME280;28444;48.056;14.408;2023-04-05T03:38:31;98061.44;;;-0.88;71.29
38912;BME280;28444;48.056;14.408;2023-04-05T03:40:58;98060.03;;;-0.84;70.85
38912;BME280;28444;48.056;14.408;2023-04-05T03:43:25;98059.97;;;-0.89;71.36
38912;BME280;28444;48.056;14.408;2023-04-05T03:45:53;98059.97;;;-0.89;71.15
38912;BME280;28444;48.056;14.408;2023-04-05T03:48:19;98061.19;;;-0.90;71.22
38912;BME280;28444;48.056;14.408;2023-04-05T03:50:47;98062.88;;;-0.93;71.27
38912;BME280;28444;48.056;14.408;2023-04-05T03:53:14;98062.06;;;-0.99;71.27
38912;BME280;28444;48.056;14.408;2023-04-05T03:55:44;98064.34;;;-0.92;71.26
38912;BME280;28444;48.056;14.408;2023-04-05T03:58:15;98066.25;;;-0.98;71.33
38912;BME280;28444;48.056;14.408;2023-04-05T04:00:42;98061.13;;;-0.96;71.59
38912;BME280;28444;48.056;14.408;2023-04-05T04:03:09;98066.09;;;-0.89;71.79
38912;BME280;28444;48.056;14.408;2023-04-05T04:05:35;98071.78;;;-0.81;71.93
38912;BME280;28444;48.056;14.408;2023-04-05T04:08:05;98066.47;;;-0.76;71.38
38912;BME280;28444;48.056;14.408;2023-04-05T04:10:33;98064.56;;;-0.69;71.33
38912;BME280;28444;48.056;14.408;2023-04-05T04:13:00;98061.25;;;-0.59;72.07
38912;BME280;28444;48.056;14.408;2023-04-05T04:15:26;98068.00;;;-0.69;72.20
38912;BME280;28444;48.056;14.408;2023-04-05T04:17:53;98072.78;;;-0.79;72.37
38912;BME280;28444;48.056;14.408;2023-04-05T04:20:20;98069.16;;;-0.76;73.81
38912;BME280;28444;48.056;14.408;2023-04-05T04:22:46;98064.94;;;-0.82;72.96
38912;BME280;28444;48.056;14.408;2023-04-05T04:25:15;98071.75;;;-0.87;73.77
38912;BME280;28444;48.056;14.408;2023-04-05T04:27:44;98068.94;;;-0.98;74.30
38912;BME280;28444;48.056;14.408;2023-04-05T04:30:13;98073.28;;;-1.01;73.72
38912;BME280;28444;48.056;14.408;2023-04-05T04:32:41;98066.16;;;-1.04;74.71
38912;BME280;28444;48.056;14.408;2023-04-05T04:35:26;98079.25;;;-1.11;74.21
38912;BME280;28444;48.056;14.408;2023-04-05T04:38:03;98080.75;;;-1.31;75.31
38912;BME280;28444;48.056;14.408;2023-04-05T04:40:32;98078.19;;;-1.40;75.13
38912;BME280;28444;48.056;14.408;2023-04-05T04:43:05;98074.66;;;-1.46;75.54
38912;BME280;28444;48.056;14.408;2023-04-05T04:45:32;98074.41;;;-1.48;75.80
38912;BME280;28444;48.056;14.408;2023-04-05T04:48:03;98076.41;;;-1.63;76.45
38912;BME280;28444;48.056;14.408;2023-04-05T04:50:31;98077.72;;;-1.74;76.54
38912;BME280;28444;48.056;14.408;2023-04-05T04:52:59;98077.78;;;-1.68;76.36
38912;BME280;28444;48.056;14.408;2023-04-05T04:55:28;98075.84;;;-1.67;76.11
38912;BME280;28444;48.056;14.408;2023-04-05T04:57:55;98074.19;;;-1.65;76.34
38912;BME280;28444;48.056;14.408;2023-04-05T05:00:22;98075.66;;;-1.64;76.40
38912;BME280;28444;48.056;14.408;2023-04-05T05:02:50;98071.84;;;-1.57;76.07
38912;BME280;28444;48.056;14.408;2023-04-05T05:05:21;98082.19;;;-1.50;76.12
38912;BME280;28444;48.056;14.408;2023-04-05T05:07:52;98074.13;;;-1.50;76.56
38912;BME280;28444;48.056;14.408;2023-04-05T05:10:19;98072.13;;;-1.55;76.02
38912;BME280;28444;48.056;14.408;2023-04-05T05:12:46;98079.69;;;-1.54;76.33
38912;BME280;28444;48.056;14.408;2023-04-05T05:15:14;98069.44;;;-1.55;76.39
38912;BME280;28444;48.056;14.408;2023-04-05T05:17:41;98080.78;;;-1.46;76.36
38912;BME280;28444;48.056;14.408;2023-04-05T05:20:09;98076.69;;;-1.41;75.67
38912;BME280;28444;48.056;14.408;2023-04-05T05:22:37;98076.56;;;-1.32;75.98
38912;BME280;28444;48.056;14.408;2023-04-05T05:25:05;98081.28;;;-1.27;75.63
38912;BME280;28444;48.056;14.408;2023-04-05T05:27:32;98085.16;;;-1.28;75.60
38912;BME280;28444;48.056;14.408;2023-04-05T05:30:02;98076.78;;;-1.15;75.46
38912;BME280;28444;48.056;14.408;2023-04-05T05:32:29;98087.66;;;-1.04;75.02
38912;BME280;28444;48.056;14.408;2023-04-05T05:34:56;98087.28;;;-0.91;74.49
38912;BME280;28444;48.056;14.408;2023-04-05T05:37:30;98094.00;;;-0.81;74.66
38912;BME280;28444;48.056;14.408;2023-04-05T05:39:57;98087.47;;;-0.74;73.42
38912;BME280;28444;48.056;14.408;2023-04-05T05:42:24;98087.56;;;-0.68;72.53
38912;BME280;28444;48.056;14.408;2023-04-05T05:44:52;98094.38;;;-0.47;73.19
38912;BME280;28444;48.056;14.408;2023-04-05T05:47:19;98092.31;;;-0.32;72.15
38912;BME280;28444;48.056;14.408;2023-04-05T05:49:46;98095.13;;;-0.15;71.54
38912;BME280;28444;48.056;14.408;2023-04-05T05:52:15;98092.50;;;-0.09;71.03
38912;BME280;28444;48.056;14.408;2023-04-05T05:54:42;98093.19;;;-0.14;70.99
38912;BME280;28444;48.056;14.408;2023-04-05T05:57:09;98093.34;;;-0.23;70.73
38912;BME280;28444;48.056;14.408;2023-04-05T05:59:35;98097.72;;;-0.26;70.45
38912;BME280;28444;48.056;14.408;2023-04-05T06:02:02;98093.28;;;-0.29;71.10
38912;BME280;28444;48.056;14.408;2023-04-05T06:04:29;98096.47;;;-0.31;71.50
38912;BME280;28444;48.056;14.408;2023-04-05T06:06:56;98096.47;;;-0.31;72.16
38912;BME280;28444;48.056;14.408;2023-04-05T06:09:23;98096.53;;;-0.25;71.65
38912;BME280;28444;48.056;14.408;2023-04-05T06:11:53;98091.59;;;-0.27;71.06
38912;BME280;28444;48.056;14.408;2023-04-05T06:14:23;98090.66;;;-0.23;70.11
38912;BME280;28444;48.056;14.408;2023-04-05T06:16:50;98092.28;;;-0.06;70.37
38912;BME280;28444;48.056;14.408;2023-04-05T06:19:16;98096.19;;;-0.07;70.36
38912;BME280;28444;48.056;14.408;2023-04-05T06:21:43;98084.25;;;0.00;69.11
38912;BME280;28444;48.056;14.408;2023-04-05T06:24:10;98084.59;;;0.13;67.89
38912;BME280;28444;48.056;14.408;2023-04-05T06:26:36;98090.47;;;0.12;66.79
38912;BME280;28444;48.056;14.408;2023-04-05T06:29:03;98090.69;;;0.14;66.41
38912;BME280;28444;48.056;14.408;2023-04-05T06:31:31;98090.53;;;0.23;67.14
38912;BME280;28444;48.056;14.408;2023-04-05T06:33:58;98091.00;;;0.21;65.71
38912;BME280;28444;48.056;14.408;2023-04-05T06:36:25;98090.59;;;0.34;65.63
38912;BME280;28444;48.056;14.408;2023-04-05T06:38:53;98085.28;;;0.45;65.98
38912;BME280;28444;48.056;14.408;2023-04-05T06:41:20;98088.72;;;0.46;65.00
38912;BME280;28444;48.056;14.408;2023-04-05T06:43:46;98086.28;;;0.48;65.09
38912;BME280;28444;48.056;14.408;2023-04-05T06:46:13;98091.44;;;0.52;64.82
38912;BME280;28444;48.056;14.408;2023-04-05T06:48:40;98087.81;;;0.60;64.33
38912;BME280;28444;48.056;14.408;2023-04-05T06:51:07;98082.19;;;0.58;63.65
38912;BME280;28444;48.056;14.408;2023-04-05T06:53:34;98084.44;;;0.65;63.56
38912;BME280;28444;48.056;14.408;2023-04-05T06:56:01;98090.78;;;0.68;62.87
38912;BME280;28444;48.056;14.408;2023-04-05T06:58:28;98082.03;;;0.79;63.35
38912;BME280;28444;48.056;14.408;2023-04-05T07:00:55;98085.47;;;0.79;62.43
38912;BME280;28444;48.056;14.408;2023-04-05T07:03:22;98080.09;;;0.85;62.39
38912;BME280;28444;48.056;14.408;2023-04-05T07:05:57;98087.69;;;0.86;61.36
38912;BME280;28444;48.056;14.408;2023-04-05T07:08:31;98076.97;;;0.98;60.24
38912;BME280;28444;48.056;14.408;2023-04-05T07:10:58;98084.81;;;1.01;57.75
38912;BME280;28444;48.056;14.408;2023-04-05T07:13:25;98087.50;;;1.01;58.78
38912;BME280;28444;48.056;14.408;2023-04-05T07:15:58;98088.28;;;1.07;59.79
38912;BME280;28444;48.056;14.408;2023-04-05T07:18:26;98095.84;;;1.09;59.46
38912;BME280;28444;48.056;14.408;2023-04-05T07:20:55;98084.84;;;1.12;58.36
38912;BME280;28444;48.056;14.408;2023-04-05T07:23:25;98084.16;;;1.17;58.82
38912;BME280;28444;48.056;14.408;2023-04-05T07:25:54;98081.44;;;1.23;58.60
38912;BME280;28444;48.056;14.408;2023-04-05T07:28:21;98092.25;;;1.34;56.62
38912;BME280;28444;48.056;14.408;2023-04-05T07:30:48;98084.69;;;1.38;54.22
38912;BME280;28444;48.056;14.408;2023-04-05T07:33:15;98089.84;;;1.48;56.86
38912;BME280;28444;48.056;14.408;2023-04-05T07:35:42;98081.53;;;1.51;57.96
38912;BME280;28444;48.056;14.408;2023-04-05T07:38:08;98080.06;;;1.56;57.70
38912;BME280;28444;48.056;14.408;2023-04-05T07:40:36;98085.47;;;1.67;57.10
38912;BME280;28444;48.056;14.408;2023-04-05T07:43:03;98084.25;;;1.74;57.98
38912;BME280;28444;48.056;14.408;2023-04-05T07:45:30;98090.66;;;1.82;56.38
38912;BME280;28444;48.056;14.408;2023-04-05T07:47:56;98089.16;;;1.86;55.35
38912;BME280;28444;48.056;14.408;2023-04-05T07:50:24;98095.31;;;1.92;55.28
38912;BME280;28444;48.056;14.408;2023-04-05T07:52:51;98091.13;;;1.97;54.13
38912;BME280;28444;48.056;14.408;2023-04-05T07:55:18;98092.38;;;2.07;55.00
38912;BME280;28444;48.056;14.408;2023-04-05T07:57:44;98078.13;;;2.01;50.80
38912;BME280;28444;48.056;14.408;2023-04-05T08:00:12;98082.78;;;1.95;50.24
38912;BME280;28444;48.056;14.408;2023-04-05T08:02:39;98087.47;;;1.89;50.47
38912;BME280;28444;48.056;14.408;2023-04-05T08:05:06;98086.47;;;2.03;51.61
38912;BME280;28444;48.056;14.408;2023-04-05T08:07:33;98083.53;;;2.01;51.88
38912;BME280;28444;48.056;14.408;2023-04-05T08:10:00;98082.53;;;2.10;52.44
38912;BME280;28444;48.056;14.408;2023-04-05T08:12:27;98084.75;;;2.23;52.42
38912;BME280;28444;48.056;14.408;2023-04-05T08:14:53;98093.31;;;2.27;52.49
38912;BME280;28444;48.056;14.408;2023-04-05T08:17:20;98081.28;;;2.28;52.70
38912;BME280;28444;48.056;14.408;2023-04-05T08:19:47;98085.69;;;2.42;50.72
38912;BME280;28444;48.056;14.408;2023-04-05T08:22:14;98086.41;;;2.42;50.58
38912;BME280;28444;48.056;14.408;2023-04-05T08:24:43;98086.41;;;2.54;51.52
38912;BME280;28444;48.056;14.408;2023-04-05T08:27:10;98084.66;;;2.68;49.70
38912;BME280;28444;48.056;14.408;2023-04-05T08:29:37;98081.47;;;2.69;50.09
38912;BME280;28444;48.056;14.408;2023-04-05T08:32:04;98084.34;;;2.82;50.15
38912;BME280;28444;48.056;14.408;2023-04-05T08:34:30;98081.13;;;2.89;52.53
38912;BME280;28444;48.056;14.408;2023-04-05T08:36:58;98083.31;;;2.97;51.78
38912;BME280;28444;48.056;14.408;2023-04-05T08:39:25;98078.38;;;3.01;50.70
38912;BME280;28444;48.056;14.408;2023-04-05T08:42:15;98086.75;;;3.03;50.95
38912;BME280;28444;48.056;14.408;2023-04-05T08:44:50;98079.81;;;3.13;50.60
38912;BME280;28444;48.056;14.408;2023-04-05T08:47:18;98075.09;;;3.25;50.71
38912;BME280;28444;48.056;14.408;2023-04-05T08:49:46;98074.38;;;3.24;49.80
38912;BME280;28444;48.056;14.408;2023-04-05T08:52:14;98072.63;;;3.27;49.16
38912;BME280;28444;48.056;14.408;2023-04-05T08:54:41;98073.63;;;3.24;48.99
38912;BME280;28444;48.056;14.408;2023-04-05T08:57:09;98068.03;;;3.16;48.13
38912;BME280;28444;48.056;14.408;2023-04-05T08:59:37;98070.69;;;3.22;49.26
38912;BME280;28444;48.056;14.408;2023-04-05T09:02:09;98073.63;;;3.24;47.13
38912;BME280;28444;48.056;14.408;2023-04-05T09:04:41;98071.59;;;3.35;46.15
38912;BME280;28444;48.056;14.408;2023-04-05T09:07:12;98077.94;;;3.44;47.21
38912;BME280;28444;48.056;14.408;2023-04-05T09:09:44;98071.00;;;3.54;47.72
38912;BME280;28444;48.056;14.408;2023-04-05T09:12:12;98066.00;;;3.64;49.15
38912;BME280;28444;48.056;14.408;2023-04-05T09:14:39;98071.06;;;3.78;48.43
38912;BME280;28444;48.056;14.408;2023-04-05T09:17:06;98071.75;;;3.84;48.51
38912;BME280;28444;48.056;14.408;2023-04-05T09:19:33;98063.06;;;3.97;49.51
38912;BME280;28444;48.056;14.408;2023-04-05T09:22:07;98064.03;;;4.00;48.90
38912;BME280;28444;48.056;14.408;2023-04-05T09:24:41;98066.72;;;4.00;49.17
38912;BME280;28444;48.056;14.408;2023-04-05T09:27:10;98069.38;;;4.05;48.49
38912;BME280;28444;48.056;14.408;2023-04-05T09:29:38;98062.91;;;4.14;49.91
38912;BME280;28444;48.056;14.408;2023-04-05T09:32:07;98069.50;;;4.19;49.27
38912;BME280;28444;48.056;14.408;2023-04-05T09:34:35;98064.81;;;4.19;48.04
38912;BME280;28444;48.056;14.408;2023-04-05T09:37:12;98060.81;;;4.01;45.32
38912;BME280;28444;48.056;14.408;2023-04-05T09:39:43;98054.31;;;4.10;47.36
38912;BME280;28444;48.056;14.408;2023-04-05T09:42:14;98057.69;;;4.22;49.63
38912;BME280;28444;48.056;14.408;2023-04-05T09:44:58;98057.31;;;4.31;47.35
38912;BME280;28444;48.056;14.408;2023-04-05T09:47:29;98054.06;;;4.38;45.35
38912;BME280;28444;48.056;14.408;2023-04-05T09:50:17;98050.38;;;4.11;45.99
38912;BME280;28444;48.056;14.408;2023-04-05T09:52:44;98053.38;;;4.07;43.70
38912;BME280;28444;48.056;14.408;2023-04-05T09:55:11;98044.00;;;4.08;47.33
38912;BME280;28444;48.056;14.408;2023-04-05T09:57:40;98050.13;;;4.15;45.23
38912;BME280;28444;48.056;14.408;2023-04-05T10:00:20;98049.56;;;4.22;46.89
38912;BME280;28444;48.056;14.408;2023-04-05T10:02:51;98044.81;;;4.03;44.21
38912;BME280;28444;48.056;14.408;2023-04-05T10:05:22;98045.63;;;4.17;46.36
38912;BME280;28444;48.056;14.408;2023-04-05T10:07:49;98040.63;;;4.27;48.38
38912;BME280;28444;48.056;14.408;2023-04-05T10:10:16;98038.88;;;4.29;46.37
38912;BME280;28444;48.056;14.408;2023-04-05T10:12:44;98037.31;;;4.15;45.44
38912;BME280;28444;48.056;14.408;2023-04-05T10:15:12;98037.94;;;4.27;47.39
38912;BME280;28444;48.056;14.408;2023-04-05T10:18:02;98027.66;;;4.44;45.89
38912;BME280;28444;48.056;14.408;2023-04-05T10:20:38;98036.22;;;4.48;46.25
38912;BME280;28444;48.056;14.408;2023-04-05T10:23:08;98030.00;;;4.53;47.21
38912;BME280;28444;48.056;14.408;2023-04-05T10:26:15;98023.22;;;4.47;42.89
38912;BME280;28444;48.056;14.408;2023-04-05T10:28:46;98025.97;;;4.17;45.33
38912;BME280;28444;48.056;14.408;2023-04-05T10:31:28;98027.34;;;4.29;47.36
38912;BME280;28444;48.056;14.408;2023-04-05T10:34:09;98024.06;;;4.36;42.91
38912;BME280;28444;48.056;14.408;2023-04-05T10:37:00;98024.22;;;4.19;45.51
38912;BME280;28444;48.056;14.408;2023-04-05T10:39:29;98017.94;;;4.05;43.60
38912;BME280;28444;48.056;14.408;2023-04-05T10:42:01;98014.00;;;4.06;46.36
38912;BME280;28444;48.056;14.408;2023-04-05T10:44:31;98011.53;;;4.33;46.24
38912;BME280;28444;48.056;14.408;2023-04-05T10:46:59;98013.31;;;4.49;44.61
38912;BME280;28444;48.056;14.408;2023-04-05T10:49:48;98005.13;;;4.55;44.95
38912;BME280;28444;48.056;14.408;2023-04-05T10:52:16;98008.00;;;4.63;46.19
38912;BME280;28444;48.056;14.408;2023-04-05T10:54:43;97999.16;;;4.81;42.83
38912;BME280;28444;48.056;14.408;2023-04-05T10:57:10;97995.00;;;4.80;44.42
38912;BME280;28444;48.056;14.408;2023-04-05T10:59:42;97991.16;;;4.89;45.35
38912;BME280;28444;48.056;14.408;2023-04-05T11:02:10;97996.38;;;5.05;46.25
38912;BME280;28444;48.056;14.408;2023-04-05T11:04:39;97989.03;;;4.81;41.33
38912;BME280;28444;48.056;14.408;2023-04-05T11:07:15;97989.09;;;4.57;43.71
38912;BME280;28444;48.056;14.408;2023-04-05T11:10:02;97993.66;;;4.68;43.43
38912;BME280;28444;48.056;14.408;2023-04-05T11:13:05;97991.38;;;4.72;46.78
38912;BME280;28444;48.056;14.408;2023-04-05T11:15:33;97989.47;;;4.67;43.48
38912;BME280;28444;48.056;14.408;2023-04-05T11:18:36;97991.47;;;4.66;42.66
38912;BME280;28444;48.056;14.408;2023-04-05T11:21:09;97991.50;;;4.61;43.13
38912;BME280;28444;48.056;14.408;2023-04-05T11:24:01;97996.75;;;4.34;42.05
38912;BME280;28444;48.056;14.408;2023-04-05T11:29:49;97987.81;;;4.39;45.47
38912;BME280;28444;48.056;14.408;2023-04-05T11:32:16;97986.28;;;4.25;43.60
38912;BME280;28444;48.056;14.408;2023-04-05T11:34:43;97983.31;;;4.23;44.59
38912;BME280;28444;48.056;14.408;2023-04-05T11:37:10;97975.31;;;4.36;45.02
38912;BME280;28444;48.056;14.408;2023-04-05T11:39:37;97979.22;;;4.78;45.34
38912;BME280;28444;48.056;14.408;2023-04-05T11:42:06;97972.44;;;4.91;46.40
38912;BME280;28444;48.056;14.408;2023-04-05T11:44:47;97972.63;;;5.12;45.53
38912;BME280;28444;48.056;14.408;2023-04-05T11:47:18;97979.13;;;5.22;45.81
38912;BME280;28444;48.056;14.408;2023-04-05T11:49:50;97970.41;;;5.29;40.89
38912;BME280;28444;48.056;14.408;2023-04-05T11:52:19;97971.66;;;5.28;41.24
38912;BME280;28444;48.056;14.408;2023-04-05T11:54:47;97974.91;;;5.07;43.55
38912;BME280;28444;48.056;14.408;2023-04-05T11:57:19;97969.31;;;5.19;45.83
38912;BME280;28444;48.056;14.408;2023-04-05T11:59:48;97971.47;;;5.39;43.93
38912;BME280;28444;48.056;14.408;2023-04-05T12:02:16;97961.06;;;5.43;40.88
38912;BME280;28444;48.056;14.408;2023-04-05T12:04:43;97964.00;;;5.45;43.23
38912;BME280;28444;48.056;14.408;2023-04-05T12:07:13;97954.53;;;5.52;44.06
38912;BME280;28444;48.056;14.408;2023-04-05T12:10:00;97954.59;;;5.46;41.78
38912;BME280;28444;48.056;14.408;2023-04-05T12:12:39;97952.28;;;5.37;42.50
38912;BME280;28444;48.056;14.408;2023-04-05T12:15:07;97951.97;;;5.41;43.46
38912;BME280;28444;48.056;14.408;2023-04-05T12:17:48;97951.34;;;5.35;41.37
38912;BME280;28444;48.056;14.408;2023-04-05T12:20:18;97948.38;;;5.19;41.53
38912;BME280;28444;48.056;14.408;2023-04-05T12:22:46;97946.00;;;5.29;42.68
38912;BME280;28444;48.056;14.408;2023-04-05T12:25:15;97949.31;;;5.22;41.19
38912;BME280;28444;48.056;14.408;2023-04-05T12:27:42;97953.03;;;5.38;43.70
38912;BME280;28444;48.056;14.408;2023-04-05T12:30:11;97937.84;;;5.61;43.71
38912;BME280;28444;48.056;14.408;2023-04-05T12:32:54;97940.59;;;5.74;43.18
38912;BME280;28444;48.056;14.408;2023-04-05T12:35:23;97932.56;;;5.82;41.53
38912;BME280;28444;48.056;14.408;2023-04-05T12:37:50;97925.69;;;5.94;42.39
38912;BME280;28444;48.056;14.408;2023-04-05T12:40:22;97929.13;;;5.95;42.60
38912;BME280;28444;48.056;14.408;2023-04-05T12:42:49;97935.09;;;5.93;42.39
38912;BME280;28444;48.056;14.408;2023-04-05T12:45:16;97924.75;;;6.05;41.73
38912;BME280;28444;48.056;14.408;2023-04-05T12:47:52;97919.22;;;6.24;42.23
38912;BME280;28444;48.056;14.408;2023-04-05T12:50:28;97918.06;;;6.19;40.69
38912;BME280;28444;48.056;14.408;2023-04-05T12:52:59;97913.69;;;6.16;40.92
38912;BME280;28444;48.056;14.408;2023-04-05T12:55:29;97909.69;;;5.91;40.07
38912;BME280;28444;48.056;14.408;2023-04-05T12:58:00;97912.88;;;5.63;40.07
38912;BME280;28444;48.056;14.408;2023-04-05T13:00:28;97907.47;;;5.76;41.37
38912;BME280;28444;48.056;14.408;2023-04-05T13:02:56;97903.00;;;5.92;43.90
38912;BME280;28444;48.056;14.408;2023-04-05T13:05:28;97909.72;;;6.17;43.17
38912;BME280;28444;48.056;14.408;2023-04-05T13:07:56;97902.59;;;6.41;43.45
38912;BME280;28444;48.056;14.408;2023-04-05T13:10:23;97914.59;;;6.45;41.91
38912;BME280;28444;48.056;14.408;2023-04-05T13:12:51;97914.16;;;6.55;43.40
38912;BME280;28444;48.056;14.408;2023-04-05T13:15:18;97907.09;;;6.25;40.25
38912;BME280;28444;48.056;14.408;2023-04-05T13:17:45;97907.72;;;6.05;38.93